sensor_id;sensor_type;location;lat;lon;timestamp;P1;durP1;ratioP1;P2;durP2;ratioP2
76039;SDS011;64736;50.462;4.850;2023-09-19T00:00:30;4.80;;;1.63;;
76039;SDS011;64736;50.462;4.850;2023-09-19T00:02:57;8.13;;;2.38;;
76039;SDS011;64736;50.462;4.850;2023-09-19T00:05:27;6.65;;;1.83;;
76039;SDS011;64736;50.462;4.850;2023-09-19T00:07:54;12.93;;;1.95;;
76039;SDS011;64736;50.462;4.850;2023-09-19T00:10:24;6.55;;;1.60;;
76039;SDS011;64736;50.462;4.850;2023-09-19T00:12:52;7.28;;;1.80;;
76039;SDS011;64736;50.462;4.850;2023-09-19T00:15:24;5.38;;;1.40;;
76039;SDS011;64736;50.462;4.850;2023-09-19T00:17:56;4.97;;;1.48;;
76039;SDS011;64736;50.462;4.850;2023-09-19T00:20:22;11.40;;;1.65;;
76039;SDS011;64736;50.462;4.850;2023-09-19T00:22:51;4.72;;;1.90;;
76039;SDS011;64736;50.462;4.850;2023-09-19T00:25:19;6.60;;;1.85;;
76039;SDS011;64736;50.462;4.850;2023-09-19T00:27:45;5.13;;;1.50;;
76039;SDS011;64736;50.462;4.850;2023-09-19T00:30:13;5.07;;;1.88;;
76039;SDS011;64736;50.462;4.850;2023-09-19T00:32:45;4.70;;;1.70;;
76039;SDS011;64736;50.462;4.850;2023-09-19T00:35:17;8.05;;;2.00;;
76039;SDS011;64736;50.462;4.850;2023-09-19T00:37:44;5.50;;;1.60;;
76039;SDS011;64736;50.462;4.850;2023-09-19T00:40:10;7.68;;;1.85;;
76039;SDS011;64736;50.462;4.850;2023-09-19T00:42:38;8.82;;;1.77;;
76039;SDS011;64736;50.462;4.850;2023-09-19T00:45:05;5.47;;;1.90;;
76039;SDS011;64736;50.462;4.850;2023-09-19T00:47:34;4.72;;;1.77;;
76039;SDS011;64736;50.462;4.850;2023-09-19T00:50:00;5.95;;;1.45;;
76039;SDS011;64736;50.462;4.850;2023-09-19T00:52:27;9.68;;;2.45;;
76039;SDS011;64736;50.462;4.850;2023-09-19T00:54:53;8.95;;;2.10;;
76039;SDS011;64736;50.462;4.850;2023-09-19T00:57:19;4.32;;;1.25;;
76039;SDS011;64736;50.462;4.850;2023-09-19T00:59:48;8.60;;;1.63;;
76039;SDS011;64736;50.462;4.850;2023-09-19T01:02:18;7.78;;;2.10;;
76039;SDS011;64736;50.462;4.850;2023-09-19T01:04:44;5.97;;;2.55;;
76039;SDS011;64736;50.462;4.850;2023-09-19T01:07:10;8.35;;;1.80;;
76039;SDS011;64736;50.462;4.850;2023-09-19T01:09:36;9.13;;;2.05;;
76039;SDS011;64736;50.462;4.850;2023-09-19T01:12:04;7.32;;;1.52;;
76039;SDS011;64736;50.462;4.850;2023-09-19T01:17:46;7.10;;;1.80;;
76039;SDS011;64736;50.462;4.850;2023-09-19T01:31:22;6.00;;;1.60;;
76039;SDS011;64736;50.462;4.850;2023-09-19T01:34:00;10.50;;;1.90;;
76039;SDS011;64736;50.462;4.850;2023-09-19T01:36:27;8.27;;;1.75;;
76039;SDS011;64736;50.462;4.850;2023-09-19T01:39:11;6.10;;;1.85;;
76039;SDS011;64736;50.462;4.850;2023-09-19T01:44:22;5.50;;;1.58;;
76039;SDS011;64736;50.462;4.850;2023-09-19T01:46:55;7.13;;;2.05;;
76039;SDS011;64736;50.462;4.850;2023-09-19T01:49:33;8.07;;;2.00;;
76039;SDS011;64736;50.462;4.850;2023-09-19T01:52:12;6.32;;;1.67;;
76039;SDS011;64736;50.462;4.850;2023-09-19T01:54:46;5.43;;;1.75;;
76039;SDS011;64736;50.462;4.850;2023-09-19T02:00:15;5.50;;;1.45;;
76039;SDS011;64736;50.462;4.850;2023-09-19T02:02:46;7.07;;;1.70;;
76039;SDS011;64736;50.462;4.850;2023-09-19T02:05:13;10.70;;;2.03;;
76039;SDS011;64736;50.462;4.850;2023-09-19T02:07:39;7.22;;;1.52;;
76039;SDS011;64736;50.462;4.850;2023-09-19T02:10:06;8.48;;;2.15;;
76039;SDS011;64736;50.462;4.850;2023-09-19T02:12:32;8.10;;;2.08;;
76039;SDS011;64736;50.462;4.850;2023-09-19T02:15:00;7.72;;;1.67;;
76039;SDS011;64736;50.462;4.850;2023-09-19T02:17:26;5.05;;;1.98;;
76039;SDS011;64736;50.462;4.850;2023-09-19T02:19:55;8.00;;;1.95;;
76039;SDS011;64736;50.462;4.850;2023-09-19T02:22:21;6.60;;;1.80;;
76039;SDS011;64736;50.462;4.850;2023-09-19T02:24:50;10.15;;;2.05;;
76039;SDS011;64736;50.462;4.850;2023-09-19T02:27:16;8.80;;;1.67;;
76039;SDS011;64736;50.462;4.850;2023-09-19T02:29:45;6.97;;;1.38;;
76039;SDS011;64736;50.462;4.850;2023-09-19T02:32:11;8.52;;;2.92;;
76039;SDS011;64736;50.462;4.850;2023-09-19T02:34:36;5.40;;;1.75;;
76039;SDS011;64736;50.462;4.850;2023-09-19T02:37:04;6.93;;;2.53;;
76039;SDS011;64736;50.462;4.850;2023-09-19T02:39:38;9.70;;;1.75;;
76039;SDS011;64736;50.462;4.850;2023-09-19T02:42:04;7.00;;;1.58;;
76039;SDS011;64736;50.462;4.850;2023-09-19T02:44:30;4.82;;;1.60;;
76039;SDS011;64736;50.462;4.850;2023-09-19T02:46:56;5.72;;;1.60;;
76039;SDS011;64736;50.462;4.850;2023-09-19T02:49:25;7.70;;;1.50;;
76039;SDS011;64736;50.462;4.850;2023-09-19T02:51:50;7.22;;;2.15;;
76039;SDS011;64736;50.462;4.850;2023-09-19T02:54:16;6.88;;;1.85;;
76039;SDS011;64736;50.462;4.850;2023-09-19T02:56:43;4.47;;;1.33;;
76039;SDS011;64736;50.462;4.850;2023-09-19T02:59:08;5.97;;;1.45;;
76039;SDS011;64736;50.462;4.850;2023-09-19T03:01:35;7.05;;;1.70;;
76039;SDS011;64736;50.462;4.850;2023-09-19T03:04:03;6.95;;;1.90;;
76039;SDS011;64736;50.462;4.850;2023-09-19T03:08:58;6.07;;;1.60;;
76039;SDS011;64736;50.462;4.850;2023-09-19T03:11:25;5.78;;;1.52;;
76039;SDS011;64736;50.462;4.850;2023-09-19T03:13:54;6.78;;;1.77;;
76039;SDS011;64736;50.462;4.850;2023-09-19T03:16:20;6.55;;;1.60;;
76039;SDS011;64736;50.462;4.850;2023-09-19T03:18:49;7.93;;;1.85;;
76039;SDS011;64736;50.462;4.850;2023-09-19T03:21:16;7.97;;;2.58;;
76039;SDS011;64736;50.462;4.850;2023-09-19T03:23:46;7.97;;;1.38;;
76039;SDS011;64736;50.462;4.850;2023-09-19T03:26:12;3.88;;;1.50;;
76039;SDS011;64736;50.462;4.850;2023-09-19T03:28:42;7.95;;;2.45;;
76039;SDS011;64736;50.462;4.850;2023-09-19T03:31:08;6.30;;;1.45;;
76039;SDS011;64736;50.462;4.850;2023-09-19T03:33:35;7.93;;;1.95;;
76039;SDS011;64736;50.462;4.850;2023-09-19T03:36:01;6.03;;;1.80;;
76039;SDS011;64736;50.462;4.850;2023-09-19T03:38:30;8.88;;;2.28;;
76039;SDS011;64736;50.462;4.850;2023-09-19T03:40:56;5.50;;;1.50;;
76039;SDS011;64736;50.462;4.850;2023-09-19T03:43:22;6.22;;;1.55;;
76039;SDS011;64736;50.462;4.850;2023-09-19T03:45:48;6.72;;;1.83;;
76039;SDS011;64736;50.462;4.850;2023-09-19T03:48:14;6.80;;;2.45;;
76039;SDS011;64736;50.462;4.850;2023-09-19T03:50:40;6.13;;;1.50;;
76039;SDS011;64736;50.462;4.850;2023-09-19T03:53:06;7.80;;;1.60;;
76039;SDS011;64736;50.462;4.850;2023-09-19T03:55:32;7.53;;;2.15;;
76039;SDS011;64736;50.462;4.850;2023-09-19T03:58:04;7.95;;;1.55;;
76039;SDS011;64736;50.462;4.850;2023-09-19T04:00:31;10.15;;;2.10;;
76039;SDS011;64736;50.462;4.850;2023-09-19T04:02:57;12.35;;;1.92;;
76039;SDS011;64736;50.462;4.850;2023-09-19T04:05:23;8.63;;;1.85;;
76039;SDS011;64736;50.462;4.850;2023-09-19T04:07:49;7.93;;;1.85;;
76039;SDS011;64736;50.462;4.850;2023-09-19T04:12:53;5.53;;;1.48;;
76039;SDS011;64736;50.462;4.850;2023-09-19T04:15:20;6.03;;;1.77;;
76039;SDS011;64736;50.462;4.850;2023-09-19T04:17:49;5.25;;;1.80;;
76039;SDS011;64736;50.462;4.850;2023-09-19T04:20:16;6.68;;;1.38;;
76039;SDS011;64736;50.462;4.850;2023-09-19T04:22:43;6.20;;;1.98;;
76039;SDS011;64736;50.462;4.850;2023-09-19T04:25:09;7.97;;;1.70;;
76039;SDS011;64736;50.462;4.850;2023-09-19T04:27:35;3.58;;;1.55;;
76039;SDS011;64736;50.462;4.850;2023-09-19T04:30:01;6.68;;;1.80;;
76039;SDS011;64736;50.462;4.850;2023-09-19T04:32:29;7.53;;;1.80;;
76039;SDS011;64736;50.462;4.850;2023-09-19T04:34:58;8.02;;;2.03;;
76039;SDS011;64736;50.462;4.850;2023-09-19T04:37:27;4.65;;;1.83;;
76039;SDS011;64736;50.462;4.850;2023-09-19T04:39:53;7.30;;;1.60;;
76039;SDS011;64736;50.462;4.850;2023-09-19T04:42:19;5.00;;;1.50;;
76039;SDS011;64736;50.462;4.850;2023-09-19T04:44:46;10.10;;;1.92;;
76039;SDS011;64736;50.462;4.850;2023-09-19T04:47:15;7.17;;;2.03;;
76039;SDS011;64736;50.462;4.850;2023-09-19T04:49:41;5.88;;;1.77;;
76039;SDS011;64736;50.462;4.850;2023-09-19T04:52:07;5.40;;;1.42;;
76039;SDS011;64736;50.462;4.850;2023-09-19T04:54:32;8.20;;;2.58;;
76039;SDS011;64736;50.462;4.850;2023-09-19T04:56:59;5.43;;;1.58;;
76039;SDS011;64736;50.462;4.850;2023-09-19T04:59:25;5.70;;;1.83;;
76039;SDS011;64736;50.462;4.850;2023-09-19T05:01:53;8.27;;;2.15;;
76039;SDS011;64736;50.462;4.850;2023-09-19T05:04:19;7.15;;;2.13;;
76039;SDS011;64736;50.462;4.850;2023-09-19T05:06:44;6.47;;;1.80;;
76039;SDS011;64736;50.462;4.850;2023-09-19T05:09:10;7.63;;;1.80;;
76039;SDS011;64736;50.462;4.850;2023-09-19T05:11:36;7.35;;;2.05;;
76039;SDS011;64736;50.462;4.850;2023-09-19T05:14:04;5.93;;;2.00;;
76039;SDS011;64736;50.462;4.850;2023-09-19T05:16:29;5.95;;;1.77;;
76039;SDS011;64736;50.462;4.850;2023-09-19T05:18:57;7.88;;;1.70;;
76039;SDS011;64736;50.462;4.850;2023-09-19T05:21:25;11.87;;;2.27;;
76039;SDS011;64736;50.462;4.850;2023-09-19T05:23:54;4.82;;;1.33;;
76039;SDS011;64736;50.462;4.850;2023-09-19T05:26:21;5.47;;;1.65;;
76039;SDS011;64736;50.462;4.850;2023-09-19T05:28:46;9.10;;;1.88;;
76039;SDS011;64736;50.462;4.850;2023-09-19T05:31:15;4.90;;;1.77;;
76039;SDS011;64736;50.462;4.850;2023-09-19T05:33:42;8.27;;;2.00;;
76039;SDS011;64736;50.462;4.850;2023-09-19T05:36:08;6.45;;;1.83;;
76039;SDS011;64736;50.462;4.850;2023-09-19T05:38:37;7.00;;;1.67;;
76039;SDS011;64736;50.462;4.850;2023-09-19T05:41:06;5.70;;;1.52;;
76039;SDS011;64736;50.462;4.850;2023-09-19T05:43:33;5.75;;;1.20;;
76039;SDS011;64736;50.462;4.850;2023-09-19T05:45:59;7.32;;;1.88;;
76039;SDS011;64736;50.462;4.850;2023-09-19T05:48:25;6.57;;;1.70;;
76039;SDS011;64736;50.462;4.850;2023-09-19T05:50:51;6.15;;;1.75;;
76039;SDS011;64736;50.462;4.850;2023-09-19T05:53:17;6.65;;;1.88;;
76039;SDS011;64736;50.462;4.850;2023-09-19T05:55:43;6.38;;;2.00;;
76039;SDS011;64736;50.462;4.850;2023-09-19T05:58:09;8.40;;;1.70;;
76039;SDS011;64736;50.462;4.850;2023-09-19T06:00:35;6.55;;;2.00;;
76039;SDS011;64736;50.462;4.850;2023-09-19T06:03:01;5.50;;;1.92;;
76039;SDS011;64736;50.462;4.850;2023-09-19T06:05:28;7.22;;;1.85;;
76039;SDS011;64736;50.462;4.850;2023-09-19T06:07:55;7.70;;;1.70;;
76039;SDS011;64736;50.462;4.850;2023-09-19T06:10:25;8.10;;;2.10;;
76039;SDS011;64736;50.462;4.850;2023-09-19T06:12:53;9.50;;;2.55;;
76039;SDS011;64736;50.462;4.850;2023-09-19T06:15:20;8.25;;;1.92;;
76039;SDS011;64736;50.462;4.850;2023-09-19T06:17:51;4.38;;;1.63;;
76039;SDS011;64736;50.462;4.850;2023-09-19T06:20:23;5.68;;;1.60;;
76039;SDS011;64736;50.462;4.850;2023-09-19T06:22:50;4.63;;;1.75;;
76039;SDS011;64736;50.462;4.850;2023-09-19T06:25:16;6.95;;;1.58;;
76039;SDS011;64736;50.462;4.850;2023-09-19T06:27:44;5.95;;;1.63;;
76039;SDS011;64736;50.462;4.850;2023-09-19T06:30:14;9.38;;;3.17;;
76039;SDS011;64736;50.462;4.850;2023-09-19T06:32:40;7.95;;;2.10;;
76039;SDS011;64736;50.462;4.850;2023-09-19T06:35:13;8.57;;;1.60;;
76039;SDS011;64736;50.462;4.850;2023-09-19T06:37:40;6.93;;;1.85;;
76039;SDS011;64736;50.462;4.850;2023-09-19T06:42:45;5.68;;;1.45;;
76039;SDS011;64736;50.462;4.850;2023-09-19T06:45:13;9.07;;;1.60;;
76039;SDS011;64736;50.462;4.850;2023-09-19T06:47:46;6.70;;;1.75;;
76039;SDS011;64736;50.462;4.850;2023-09-19T06:50:17;7.03;;;1.70;;
76039;SDS011;64736;50.462;4.850;2023-09-19T06:52:45;4.50;;;1.65;;
76039;SDS011;64736;50.462;4.850;2023-09-19T06:55:15;4.60;;;1.75;;
76039;SDS011;64736;50.462;4.850;2023-09-19T06:57:42;6.72;;;2.10;;
76039;SDS011;64736;50.462;4.850;2023-09-19T07:00:09;8.23;;;2.83;;
76039;SDS011;64736;50.462;4.850;2023-09-19T07:02:43;7.10;;;1.45;;
76039;SDS011;64736;50.462;4.850;2023-09-19T07:05:30;5.63;;;1.42;;
76039;SDS011;64736;50.462;4.850;2023-09-19T07:07:56;4.53;;;1.73;;
76039;SDS011;64736;50.462;4.850;2023-09-19T07:10:26;6.00;;;1.58;;
76039;SDS011;64736;50.462;4.850;2023-09-19T07:13:02;5.82;;;1.55;;
76039;SDS011;64736;50.462;4.850;2023-09-19T07:15:29;5.05;;;1.30;;
76039;SDS011;64736;50.462;4.850;2023-09-19T07:18:00;6.60;;;1.48;;
76039;SDS011;64736;50.462;4.850;2023-09-19T07:20:26;6.82;;;1.50;;
76039;SDS011;64736;50.462;4.850;2023-09-19T07:22:54;5.38;;;1.77;;
76039;SDS011;64736;50.462;4.850;2023-09-19T07:25:20;5.35;;;1.77;;
76039;SDS011;64736;50.462;4.850;2023-09-19T07:27:46;7.82;;;1.80;;
76039;SDS011;64736;50.462;4.850;2023-09-19T07:30:12;8.65;;;3.13;;
76039;SDS011;64736;50.462;4.850;2023-09-19T07:32:38;6.60;;;1.60;;
76039;SDS011;64736;50.462;4.850;2023-09-19T07:35:05;10.40;;;2.55;;
76039;SDS011;64736;50.462;4.850;2023-09-19T07:37:32;7.68;;;2.13;;
76039;SDS011;64736;50.462;4.850;2023-09-19T07:42:28;6.28;;;1.73;;
76039;SDS011;64736;50.462;4.850;2023-09-19T07:44:53;5.60;;;1.80;;
76039;SDS011;64736;50.462;4.850;2023-09-19T07:47:19;8.07;;;2.40;;
76039;SDS011;64736;50.462;4.850;2023-09-19T07:49:48;8.90;;;2.13;;
76039;SDS011;64736;50.462;4.850;2023-09-19T07:52:14;6.53;;;1.95;;
76039;SDS011;64736;50.462;4.850;2023-09-19T07:54:40;6.97;;;2.65;;
76039;SDS011;64736;50.462;4.850;2023-09-19T07:57:06;6.25;;;1.73;;
76039;SDS011;64736;50.462;4.850;2023-09-19T07:59:32;7.32;;;2.00;;
76039;SDS011;64736;50.462;4.850;2023-09-19T08:01:58;8.80;;;2.13;;
76039;SDS011;64736;50.462;4.850;2023-09-19T08:04:23;7.28;;;1.98;;
76039;SDS011;64736;50.462;4.850;2023-09-19T08:06:51;7.63;;;2.25;;
76039;SDS011;64736;50.462;4.850;2023-09-19T08:09:17;8.95;;;2.03;;
76039;SDS011;64736;50.462;4.850;2023-09-19T08:11:46;6.72;;;2.10;;
76039;SDS011;64736;50.462;4.850;2023-09-19T08:14:12;9.13;;;2.22;;
76039;SDS011;64736;50.462;4.850;2023-09-19T08:16:39;6.43;;;1.70;;
76039;SDS011;64736;50.462;4.850;2023-09-19T08:19:08;6.40;;;1.70;;
76039;SDS011;64736;50.462;4.850;2023-09-19T08:21:35;5.82;;;1.90;;
76039;SDS011;64736;50.462;4.850;2023-09-19T08:24:01;8.30;;;1.55;;
76039;SDS011;64736;50.462;4.850;2023-09-19T08:26:29;6.45;;;1.67;;
76039;SDS011;64736;50.462;4.850;2023-09-19T08:28:56;5.40;;;1.92;;
76039;SDS011;64736;50.462;4.850;2023-09-19T08:31:22;6.15;;;2.05;;
76039;SDS011;64736;50.462;4.850;2023-09-19T08:33:48;6.85;;;1.70;;
76039;SDS011;64736;50.462;4.850;2023-09-19T08:36:16;5.40;;;1.63;;
76039;SDS011;64736;50.462;4.850;2023-09-19T08:38:42;4.35;;;1.33;;
76039;SDS011;64736;50.462;4.850;2023-09-19T08:41:07;6.07;;;1.90;;
76039;SDS011;64736;50.462;4.850;2023-09-19T08:43:33;4.72;;;1.25;;
76039;SDS011;64736;50.462;4.850;2023-09-19T08:46:18;6.13;;;1.63;;
76039;SDS011;64736;50.462;4.850;2023-09-19T08:48:51;6.15;;;1.83;;
76039;SDS011;64736;50.462;4.850;2023-09-19T08:51:45;7.32;;;1.30;;
76039;SDS011;64736;50.462;4.850;2023-09-19T08:56:54;8.07;;;1.88;;
76039;SDS011;64736;50.462;4.850;2023-09-19T08:59:23;7.18;;;1.58;;
76039;SDS011;64736;50.462;4.850;2023-09-19T09:01:50;6.90;;;2.38;;
76039;SDS011;64736;50.462;4.850;2023-09-19T09:04:18;5.05;;;1.60;;
76039;SDS011;64736;50.462;4.850;2023-09-19T09:06:45;6.45;;;1.73;;
76039;SDS011;64736;50.462;4.850;2023-09-19T09:09:16;7.45;;;1.75;;
76039;SDS011;64736;50.462;4.850;2023-09-19T09:11:42;5.75;;;1.63;;
76039;SDS011;64736;50.462;4.850;2023-09-19T09:14:08;6.55;;;2.05;;
76039;SDS011;64736;50.462;4.850;2023-09-19T09:16:34;4.93;;;1.83;;
76039;SDS011;64736;50.462;4.850;2023-09-19T09:19:00;5.43;;;1.13;;
76039;SDS011;64736;50.462;4.850;2023-09-19T09:21:26;5.05;;;1.40;;
76039;SDS011;64736;50.462;4.850;2023-09-19T09:23:53;7.35;;;1.77;;
76039;SDS011;64736;50.462;4.850;2023-09-19T09:29:04;6.00;;;1.30;;
76039;SDS011;64736;50.462;4.850;2023-09-19T09:31:30;6.03;;;1.40;;
76039;SDS011;64736;50.462;4.850;2023-09-19T09:33:56;7.60;;;2.38;;
76039;SDS011;64736;50.462;4.850;2023-09-19T09:36:36;7.10;;;1.70;;
76039;SDS011;64736;50.462;4.850;2023-09-19T09:39:03;6.82;;;1.73;;
76039;SDS011;64736;50.462;4.850;2023-09-19T09:41:50;7.13;;;1.60;;
76039;SDS011;64736;50.462;4.850;2023-09-19T09:44:16;4.35;;;0.90;;
76039;SDS011;64736;50.462;4.850;2023-09-19T09:46:44;4.70;;;1.10;;
76039;SDS011;64736;50.462;4.850;2023-09-19T09:49:23;4.47;;;1.42;;
76039;SDS011;64736;50.462;4.850;2023-09-19T09:51:59;4.57;;;1.60;;
76039;SDS011;64736;50.462;4.850;2023-09-19T09:55:00;8.57;;;1.63;;
76039;SDS011;64736;50.462;4.850;2023-09-19T09:57:32;4.80;;;1.40;;
76039;SDS011;64736;50.462;4.850;2023-09-19T09:59:59;8.48;;;1.50;;
76039;SDS011;64736;50.462;4.850;2023-09-19T10:02:35;6.32;;;1.40;;
76039;SDS011;64736;50.462;4.850;2023-09-19T10:05:21;4.97;;;1.65;;
76039;SDS011;64736;50.462;4.850;2023-09-19T10:07:52;4.82;;;1.20;;
76039;SDS011;64736;50.462;4.850;2023-09-19T10:10:31;4.32;;;1.75;;
76039;SDS011;64736;50.462;4.850;2023-09-19T10:13:12;7.65;;;2.33;;
76039;SDS011;64736;50.462;4.850;2023-09-19T10:15:44;3.97;;;1.08;;
76039;SDS011;64736;50.462;4.850;2023-09-19T10:18:19;5.60;;;1.30;;
76039;SDS011;64736;50.462;4.850;2023-09-19T10:20:49;5.20;;;1.33;;
76039;SDS011;64736;50.462;4.850;2023-09-19T10:23:16;6.10;;;1.90;;
76039;SDS011;64736;50.462;4.850;2023-09-19T10:25:48;3.85;;;1.23;;
76039;SDS011;64736;50.462;4.850;2023-09-19T10:28:16;4.15;;;1.25;;
76039;SDS011;64736;50.462;4.850;2023-09-19T10:30:47;4.70;;;0.98;;
76039;SDS011;64736;50.462;4.850;2023-09-19T10:33:15;3.10;;;1.00;;
76039;SDS011;64736;50.462;4.850;2023-09-19T10:35:46;5.38;;;1.08;;
76039;SDS011;64736;50.462;4.850;2023-09-19T10:38:14;7.05;;;1.50;;
76039;SDS011;64736;50.462;4.850;2023-09-19T10:40:44;3.80;;;1.08;;
76039;SDS011;64736;50.462;4.850;2023-09-19T10:43:15;3.33;;;1.42;;
76039;SDS011;64736;50.462;4.850;2023-09-19T10:45:43;3.70;;;1.00;;
76039;SDS011;64736;50.462;4.850;2023-09-19T10:48:11;4.45;;;1.30;;
76039;SDS011;64736;50.462;4.850;2023-09-19T10:50:45;3.42;;;0.90;;
76039;SDS011;64736;50.462;4.850;2023-09-19T10:53:16;5.95;;;1.50;;
76039;SDS011;64736;50.462;4.850;2023-09-19T10:55:47;5.88;;;1.08;;
76039;SDS011;64736;50.462;4.850;2023-09-19T10:58:26;3.50;;;1.10;;
76039;SDS011;64736;50.462;4.850;2023-09-19T11:00:54;5.88;;;1.25;;
76039;SDS011;64736;50.462;4.850;2023-09-19T11:03:21;4.00;;;0.90;;
76039;SDS011;64736;50.462;4.850;2023-09-19T11:06:03;4.80;;;0.95;;
76039;SDS011;64736;50.462;4.850;2023-09-19T11:14:13;2.25;;;0.77;;
76039;SDS011;64736;50.462;4.850;2023-09-19T11:30:39;3.15;;;0.80;;
76039;SDS011;64736;50.462;4.850;2023-09-19T11:46:31;3.55;;;1.00;;
76039;SDS011;64736;50.462;4.850;2023-09-19T11:49:08;2.20;;;0.70;;
76039;SDS011;64736;50.462;4.850;2023-09-19T11:51:45;2.22;;;0.70;;
76039;SDS011;64736;50.462;4.850;2023-09-19T11:54:13;2.58;;;0.93;;
76039;SDS011;64736;50.462;4.850;2023-09-19T11:56:43;2.88;;;0.85;;
76039;SDS011;64736;50.462;4.850;2023-09-19T11:59:11;4.90;;;0.90;;
76039;SDS011;64736;50.462;4.850;2023-09-19T12:01:37;3.90;;;0.80;;
76039;SDS011;64736;50.462;4.850;2023-09-19T12:04:08;3.42;;;0.80;;
76039;SDS011;64736;50.462;4.850;2023-09-19T12:06:37;3.03;;;0.65;;
76039;SDS011;64736;50.462;4.850;2023-09-19T12:09:13;2.45;;;0.80;;
76039;SDS011;64736;50.462;4.850;2023-09-19T12:11:42;3.60;;;0.50;;
76039;SDS011;64736;50.462;4.850;2023-09-19T12:14:11;2.58;;;1.08;;
76039;SDS011;64736;50.462;4.850;2023-09-19T12:16:55;2.42;;;0.80;;
76039;SDS011;64736;50.462;4.850;2023-09-19T12:19:22;3.47;;;0.93;;
76039;SDS011;64736;50.462;4.850;2023-09-19T12:21:55;3.10;;;0.77;;
76039;SDS011;64736;50.462;4.850;2023-09-19T12:24:30;4.13;;;0.93;;
76039;SDS011;64736;50.462;4.850;2023-09-19T12:27:00;1.75;;;0.57;;
76039;SDS011;64736;50.462;4.850;2023-09-19T12:29:27;3.05;;;0.65;;
76039;SDS011;64736;50.462;4.850;2023-09-19T12:31:55;2.25;;;0.60;;
76039;SDS011;64736;50.462;4.850;2023-09-19T12:34:28;3.17;;;0.73;;
76039;SDS011;64736;50.462;4.850;2023-09-19T12:37:08;3.42;;;0.73;;
76039;SDS011;64736;50.462;4.850;2023-09-19T12:39:44;3.40;;;0.85;;
76039;SDS011;64736;50.462;4.850;2023-09-19T12:42:19;3.28;;;0.80;;
76039;SDS011;64736;50.462;4.850;2023-09-19T12:44:47;2.47;;;0.77;;
76039;SDS011;64736;50.462;4.850;2023-09-19T12:47:17;3.20;;;0.88;;
76039;SDS011;64736;50.462;4.850;2023-09-19T12:52:43;4.82;;;1.38;;
76039;SDS011;64736;50.462;4.850;2023-09-19T12:55:25;5.00;;;1.33;;
76039;SDS011;64736;50.462;4.850;2023-09-19T12:58:14;4.82;;;1.40;;
76039;SDS011;64736;50.462;4.850;2023-09-19T13:00:45;2.83;;;0.80;;
76039;SDS011;64736;50.462;4.850;2023-09-19T13:08:20;2.10;;;0.65;;
76039;SDS011;64736;50.462;4.850;2023-09-19T13:13:38;2.00;;;0.63;;
76039;SDS011;64736;50.462;4.850;2023-09-19T13:16:04;2.88;;;0.93;;
76039;SDS011;64736;50.462;4.850;2023-09-19T13:18:43;3.58;;;0.95;;
76039;SDS011;64736;50.462;4.850;2023-09-19T13:21:15;4.22;;;1.17;;
76039;SDS011;64736;50.462;4.850;2023-09-19T13:23:50;4.05;;;0.95;;
76039;SDS011;64736;50.462;4.850;2023-09-19T13:26:17;3.78;;;0.77;;
76039;SDS011;64736;50.462;4.850;2023-09-19T13:28:44;3.10;;;0.98;;
76039;SDS011;64736;50.462;4.850;2023-09-19T13:31:10;3.33;;;1.25;;
76039;SDS011;64736;50.462;4.850;2023-09-19T13:36:14;3.22;;;0.90;;
76039;SDS011;64736;50.462;4.850;2023-09-19T13:38:40;2.92;;;0.80;;
76039;SDS011;64736;50.462;4.850;2023-09-19T13:41:08;3.63;;;1.00;;
76039;SDS011;64736;50.462;4.850;2023-09-19T13:43:35;3.67;;;0.75;;
76039;SDS011;64736;50.462;4.850;2023-09-19T13:46:02;3.33;;;1.15;;
76039;SDS011;64736;50.462;4.850;2023-09-19T13:48:29;3.28;;;0.80;;
76039;SDS011;64736;50.462;4.850;2023-09-19T13:50:55;2.67;;;0.60;;
76039;SDS011;64736;50.462;4.850;2023-09-19T13:53:21;4.82;;;1.00;;
76039;SDS011;64736;50.462;4.850;2023-09-19T13:55:47;3.35;;;1.13;;
76039;SDS011;64736;50.462;4.850;2023-09-19T13:58:16;6.07;;;0.88;;
76039;SDS011;64736;50.462;4.850;2023-09-19T14:00:41;3.13;;;0.88;;
76039;SDS011;64736;50.462;4.850;2023-09-19T14:03:08;2.40;;;0.80;;
76039;SDS011;64736;50.462;4.850;2023-09-19T14:05:33;2.97;;;0.80;;
76039;SDS011;64736;50.462;4.850;2023-09-19T14:07:59;4.78;;;1.20;;
76039;SDS011;64736;50.462;4.850;2023-09-19T14:10:25;3.15;;;0.80;;
76039;SDS011;64736;50.462;4.850;2023-09-19T14:12:55;4.03;;;1.00;;
76039;SDS011;64736;50.462;4.850;2023-09-19T14:15:22;3.38;;;0.90;;
76039;SDS011;64736;50.462;4.850;2023-09-19T14:17:54;4.03;;;0.95;;
76039;SDS011;64736;50.462;4.850;2023-09-19T14:20:29;2.85;;;0.77;;
76039;SDS011;64736;50.462;4.850;2023-09-19T14:22:56;5.53;;;1.02;;
76039;SDS011;64736;50.462;4.850;2023-09-19T14:25:24;5.03;;;1.20;;
76039;SDS011;64736;50.462;4.850;2023-09-19T14:27:50;5.15;;;1.15;;
76039;SDS011;64736;50.462;4.850;2023-09-19T14:30:16;3.88;;;1.00;;
76039;SDS011;64736;50.462;4.850;2023-09-19T14:32:42;3.55;;;0.90;;
76039;SDS011;64736;50.462;4.850;2023-09-19T14:35:08;2.55;;;0.80;;
76039;SDS011;64736;50.462;4.850;2023-09-19T14:37:40;1.88;;;0.77;;
76039;SDS011;64736;50.462;4.850;2023-09-19T14:40:06;4.25;;;1.48;;
76039;SDS011;64736;50.462;4.850;2023-09-19T14:42:34;3.33;;;0.90;;
76039;SDS011;64736;50.462;4.850;2023-09-19T14:45:03;4.55;;;0.90;;
76039;SDS011;64736;50.462;4.850;2023-09-19T14:47:30;5.35;;;1.50;;
76039;SDS011;64736;50.462;4.850;2023-09-19T14:49:57;4.03;;;1.02;;
76039;SDS011;64736;50.462;4.850;2023-09-19T14:52:23;3.97;;;0.90;;
76039;SDS011;64736;50.462;4.850;2023-09-19T14:54:52;2.30;;;0.70;;
76039;SDS011;64736;50.462;4.850;2023-09-19T14:57:18;4.07;;;1.00;;
76039;SDS011;64736;50.462;4.850;2023-09-19T14:59:44;6.20;;;1.13;;
76039;SDS011;64736;50.462;4.850;2023-09-19T15:02:09;1.95;;;0.85;;
76039;SDS011;64736;50.462;4.850;2023-09-19T15:04:35;4.65;;;1.20;;
76039;SDS011;64736;50.462;4.850;2023-09-19T15:07:02;3.35;;;0.98;;
76039;SDS011;64736;50.462;4.850;2023-09-19T15:09:28;3.13;;;0.90;;
76039;SDS011;64736;50.462;4.850;2023-09-19T15:11:55;2.33;;;0.80;;
76039;SDS011;64736;50.462;4.850;2023-09-19T15:14:21;3.28;;;1.00;;
76039;SDS011;64736;50.462;4.850;2023-09-19T15:16:47;3.95;;;1.17;;
76039;SDS011;64736;50.462;4.850;2023-09-19T15:19:14;3.20;;;1.30;;
76039;SDS011;64736;50.462;4.850;2023-09-19T15:21:40;3.70;;;1.05;;
76039;SDS011;64736;50.462;4.850;2023-09-19T15:24:06;4.90;;;1.10;;
76039;SDS011;64736;50.462;4.850;2023-09-19T15:26:35;4.60;;;1.10;;
76039;SDS011;64736;50.462;4.850;2023-09-19T15:31:33;4.63;;;0.80;;
76039;SDS011;64736;50.462;4.850;2023-09-19T15:34:01;2.70;;;0.95;;
76039;SDS011;64736;50.462;4.850;2023-09-19T15:36:27;3.42;;;0.75;;
76039;SDS011;64736;50.462;4.850;2023-09-19T15:38:59;5.45;;;1.25;;
76039;SDS011;64736;50.462;4.850;2023-09-19T15:41:37;4.22;;;1.15;;
76039;SDS011;64736;50.462;4.850;2023-09-19T15:44:10;2.72;;;0.85;;
76039;SDS011;64736;50.462;4.850;2023-09-19T15:46:37;3.47;;;0.98;;
76039;SDS011;64736;50.462;4.850;2023-09-19T15:49:03;5.05;;;1.20;;
76039;SDS011;64736;50.462;4.850;2023-09-19T15:51:29;5.68;;;1.30;;
76039;SDS011;64736;50.462;4.850;2023-09-19T15:53:55;4.13;;;0.85;;
76039;SDS011;64736;50.462;4.850;2023-09-19T15:56:22;3.35;;;0.85;;
76039;SDS011;64736;50.462;4.850;2023-09-19T15:58:50;4.20;;;1.35;;
76039;SDS011;64736;50.462;4.850;2023-09-19T16:01:16;3.90;;;0.82;;
76039;SDS011;64736;50.462;4.850;2023-09-19T16:03:43;5.15;;;1.92;;
76039;SDS011;64736;50.462;4.850;2023-09-19T16:06:15;4.22;;;1.20;;
76039;SDS011;64736;50.462;4.850;2023-09-19T16:08:43;2.47;;;0.80;;
76039;SDS011;64736;50.462;4.850;2023-09-19T16:11:10;4.35;;;1.10;;
76039;SDS011;64736;50.462;4.850;2023-09-19T16:13:36;6.00;;;1.20;;
76039;SDS011;64736;50.462;4.850;2023-09-19T16:16:03;5.88;;;1.02;;
76039;SDS011;64736;50.462;4.850;2023-09-19T16:18:30;4.55;;;1.38;;
76039;SDS011;64736;50.462;4.850;2023-09-19T16:21:02;4.55;;;1.20;;